Time;durP1;ratioP1;P1;durP2;ratioP2;P2;SDS_P1;SDS_P2;PMS_P1;PMS_P2;Temp;Humidity;BMP_temperature;BMP_pressure;BME280_temperature;BME280_humidity;BME280_pressure;Samples;Min_cycle;Max_cycle;Signal;HPM_P1;HPM_P2
2022/06/08 00:00:21;;;;;;;0.20;0.20;;;17.20;99.90;;;;;;5036610;28;20190;-80
2022/06/08 00:02:51;;;;;;;0.20;0.20;;;17.10;99.90;;;;;;5033393;28;20192;-80
2022/06/08 00:05:17;;;;;;;0.10;0.10;;;17.00;99.90;;;;;;5035948;28;20221;-80
2022/06/08 00:07:43;;;;;;;0.20;0.20;;;17.00;99.90;;;;;;5034278;28;20231;-80
2022/06/08 00:10:09;;;;;;;0.10;0.10;;;16.90;99.90;;;;;;5031554;28;20190;-80
2022/06/08 00:12:35;;;;;;;0.10;0.10;;;16.90;99.90;;;;;;5034187;28;20235;-80
2022/06/08 00:15:00;;;;;;;0.30;0.30;;;16.70;99.90;;;;;;5033159;28;20186;-80
2022/06/08 00:17:26;;;;;;;0.20;0.20;;;16.70;99.90;;;;;;5034013;28;20250;-80
2022/06/08 00:19:51;;;;;;;0.40;0.40;;;16.40;99.90;;;;;;5033508;28;21884;-80
2022/06/08 00:22:17;;;;;;;0.20;0.20;;;16.30;99.90;;;;;;5032379;28;20190;-80
2022/06/08 00:24:43;;;;;;;0.30;0.20;;;16.30;99.90;;;;;;5032579;28;20194;-80
2022/06/08 00:27:09;;;;;;;0.10;0.10;;;16.40;99.90;;;;;;5034910;28;20210;-80
2022/06/08 00:29:34;;;;;;;0.10;0.10;;;16.40;99.90;;;;;;5032282;28;20236;-80
2022/06/08 00:32:00;;;;;;;0.10;0.10;;;16.40;99.90;;;;;;5036121;28;20208;-80
2022/06/08 00:34:25;;;;;;;0.20;0.10;;;16.20;99.90;;;;;;5031066;28;20204;-80
2022/06/08 00:36:51;;;;;;;0.30;0.20;;;16.20;99.90;;;;;;5034118;28;20256;-80
2022/06/08 00:39:16;;;;;;;0.20;0.20;;;16.10;99.90;;;;;;5034070;28;20177;-80
2022/06/08 00:41:52;;;;;;;0.30;0.17;;;16.00;99.90;;;;;;5034630;28;20537;-80
2022/06/08 00:44:36;;;;;;;0.10;0.10;;;15.90;99.90;;;;;;5032590;28;20190;-80
2022/06/08 00:47:05;;;;;;;0.20;0.20;;;15.70;99.90;;;;;;5031731;28;20208;-80
2022/06/08 00:49:40;;;;;;;0.10;0.10;;;15.50;99.90;;;;;;5033637;28;20194;-80
2022/06/08 00:52:06;;;;;;;0.20;0.20;;;15.40;99.90;;;;;;5033239;28;20213;-80
2022/06/08 00:54:37;;;;;;;0.10;0.10;;;15.40;99.90;;;;;;5031415;28;20269;-80
2022/06/08 00:57:17;;;;;;;1.17;0.97;;;15.50;99.90;;;;;;5031310;28;20209;-80
2022/06/08 01:00:06;;;;;;;0.17;0.17;;;15.50;99.90;;;;;;5032859;28;20188;-80
2022/06/08 01:02:32;;;;;;;0.10;0.10;;;15.50;99.90;;;;;;5032927;28;20189;-80
2022/06/08 01:05:25;;;;;;;0.10;0.10;;;15.40;99.90;;;;;;5032775;28;20194;-79
2022/06/08 01:07:54;;;;;;;0.10;0.10;;;15.10;99.90;;;;;;5032393;28;20186;-80
2022/06/08 01:10:23;;;;;;;0.20;0.20;;;15.00;99.90;;;;;;5033661;28;20776;-79
2022/06/08 01:12:49;;;;;;;0.10;0.10;;;14.80;99.90;;;;;;5030684;28;20182;-79
2022/06/08 01:15:18;;;;;;;0.20;0.20;;;14.80;99.90;;;;;;5031569;28;20195;-80
2022/06/08 01:17:43;;;;;;;0.27;0.27;;;15.00;99.90;;;;;;5029470;28;20203;-80
2022/06/08 01:20:13;;;;;;;0.10;0.10;;;15.10;99.90;;;;;;5033637;28;20233;-79
2022/06/08 01:22:39;;;;;;;0.10;0.10;;;15.30;99.90;;;;;;5032398;28;20180;-80
2022/06/08 01:25:07;;;;;;;0.10;0.10;;;15.20;99.90;;;;;;5033699;28;20188;-80
2022/06/08 01:27:44;;;;;;;0.20;0.20;;;15.20;99.90;;;;;;5032117;28;20902;-80
2022/06/08 01:30:27;;;;;;;0.20;0.20;;;15.20;99.90;;;;;;5031976;28;20189;-80
2022/06/08 01:33:14;;;;;;;0.10;0.10;;;15.10;99.90;;;;;;5043076;28;21779;-80
2022/06/08 01:36:06;;;;;;;0.17;0.17;;;14.80;99.90;;;;;;5032643;28;20266;-79
2022/06/08 01:39:02;;;;;;;0.10;0.10;;;14.70;99.90;;;;;;5032775;28;20287;-80
2022/06/08 01:42:04;;;;;;;0.20;0.20;;;14.70;99.90;;;;;;5032217;28;20182;-80
2022/06/08 01:45:28;;;;;;;0.17;0.17;;;14.60;99.90;;;;;;5030990;28;20560;-80
2022/06/08 01:47:42;;;;;;;0.40;0.40;;;14.50;99.90;;;;;;5030563;28;20190;-79
2022/06/08 01:50:23;;;;;;;0.20;0.20;;;14.50;99.90;;;;;;5031092;28;20202;-79
2022/06/08 01:53:05;;;;;;;0.10;0.10;;;14.50;99.90;;;;;;5029691;28;20224;-79
2022/06/08 01:56:00;;;;;;;0.27;0.13;;;14.40;99.90;;;;;;5034597;28;20226;-79
2022/06/08 01:58:32;;;;;;;0.00;0.00;;;14.40;99.90;;;;;;5031241;28;20193;-80
2022/06/08 02:01:28;;;;;;;0.20;0.20;;;14.40;99.90;;;;;;5033349;28;21081;-80
2022/06/08 02:04:14;;;;;;;0.10;0.10;;;14.40;99.90;;;;;;5030175;28;22183;-80
2022/06/08 02:06:52;;;;;;;0.17;0.07;;;14.40;99.90;;;;;;5026333;28;20240;-79
2022/06/08 02:09:29;;;;;;;0.13;0.13;;;14.70;99.90;;;;;;5031979;28;20223;-79
2022/06/08 02:12:05;;;;;;;0.00;0.00;;;15.00;99.90;;;;;;5031505;28;20227;-80
2022/06/08 02:14:47;;;;;;;0.17;0.17;;;15.00;99.90;;;;;;5031958;28;20697;-80
2022/06/08 02:17:46;;;;;;;0.10;0.10;;;15.10;99.90;;;;;;5030515;28;20720;-80
2022/06/08 02:20:42;;;;;;;0.10;0.10;;;15.40;99.90;;;;;;5036945;28;20180;-80
2022/06/08 02:23:15;;;;;;;0.17;0.17;;;15.50;99.90;;;;;;5032128;28;20219;-80
2022/06/08 02:25:46;;;;;;;0.20;0.10;;;15.60;99.90;;;;;;5033976;28;20211;-80
2022/06/08 02:28:22;;;;;;;0.10;0.10;;;15.70;99.90;;;;;;5033878;28;20193;-79
2022/06/08 02:30:53;;;;;;;0.10;0.10;;;15.80;99.90;;;;;;5036722;28;20241;-80
2022/06/08 02:36:45;;;;;;;0.10;0.10;;;15.80;99.90;;;;;;5013608;28;20201;-80
2022/06/08 02:39:28;;;;;;;0.10;0.10;;;15.80;99.90;;;;;;4998515;28;20264;-80
2022/06/08 02:42:01;;;;;;;0.10;0.10;;;15.60;99.90;;;;;;5020522;28;20664;-80
2022/06/08 02:44:31;;;;;;;0.20;0.20;;;15.30;99.90;;;;;;5031613;28;20185;-80
2022/06/08 02:47:36;;;;;;;0.10;0.10;;;15.30;99.90;;;;;;5035280;28;20205;-80
2022/06/08 02:50:09;;;;;;;0.10;0.10;;;15.30;99.90;;;;;;5004609;28;20252;-80
2022/06/08 02:52:36;;;;;;;0.10;0.10;;;15.40;99.90;;;;;;5032828;28;20425;-80
2022/06/08 02:55:04;;;;;;;0.10;0.10;;;15.40;99.90;;;;;;5036737;28;20653;-80
2022/06/08 02:57:40;;;;;;;0.20;0.20;;;15.40;99.90;;;;;;5032878;28;20182;-80
2022/06/08 03:00:10;;;;;;;0.20;0.20;;;15.30;99.90;;;;;;5037063;28;20187;-80
2022/06/08 03:02:56;;;;;;;0.10;0.10;;;15.40;99.90;;;;;;5033436;28;20200;-81
2022/06/08 03:05:32;;;;;;;0.40;0.30;;;15.40;99.90;;;;;;5035656;28;20278;-80
2022/06/08 03:08:07;;;;;;;0.10;0.10;;;15.40;99.90;;;;;;5033645;28;20192;-80
2022/06/08 03:10:36;;;;;;;0.30;0.30;;;15.40;99.90;;;;;;5034710;28;20208;-80
2022/06/08 03:13:26;;;;;;;0.10;0.10;;;15.40;99.90;;;;;;5034403;28;20247;-80
2022/06/08 03:15:57;;;;;;;2.23;0.30;;;15.40;99.90;;;;;;5033153;28;20212;-80
2022/06/08 03:18:23;;;;;;;0.97;0.30;;;15.30;99.90;;;;;;5037977;28;20183;-80
2022/06/08 03:20:49;;;;;;;0.27;0.20;;;15.00;99.90;;;;;;5035032;28;20662;-80
2022/06/08 03:23:14;;;;;;;0.10;0.10;;;15.00;99.90;;;;;;5033998;28;20200;-80
2022/06/08 03:25:40;;;;;;;0.10;0.10;;;14.90;99.90;;;;;;5032694;28;20207;-80
2022/06/08 03:28:06;;;;;;;0.10;0.10;;;15.00;99.90;;;;;;5033696;28;20252;-80
2022/06/08 03:30:31;;;;;;;0.20;0.20;;;15.10;99.90;;;;;;5035190;28;20222;-80
2022/06/08 03:32:57;;;;;;;0.17;0.17;;;15.00;99.90;;;;;;5033309;28;20346;-81
2022/06/08 03:35:23;;;;;;;0.17;0.17;;;15.00;99.90;;;;;;5036918;28;20708;-81
2022/06/08 03:37:49;;;;;;;0.10;0.10;;;14.90;99.90;;;;;;5034176;28;20190;-80
2022/06/08 03:40:16;;;;;;;0.10;0.10;;;15.00;99.90;;;;;;5035094;28;20975;-80
2022/06/08 03:42:42;;;;;;;0.10;0.10;;;15.10;99.90;;;;;;5034185;28;20268;-80
2022/06/08 03:45:09;;;;;;;0.13;0.13;;;15.10;99.90;;;;;;5034991;28;20276;-79
2022/06/08 03:47:41;;;;;;;0.10;0.10;;;15.10;99.90;;;;;;5035688;28;20181;-79
2022/06/08 03:50:10;;;;;;;0.20;0.20;;;15.20;99.90;;;;;;5033795;28;20220;-79
2022/06/08 03:52:43;;;;;;;0.23;0.13;;;15.20;99.90;;;;;;5033327;28;20196;-79
2022/06/08 03:55:11;;;;;;;0.10;0.10;;;15.20;99.90;;;;;;5034005;28;20268;-79
2022/06/08 03:57:37;;;;;;;0.10;0.10;;;15.20;99.90;;;;;;5026697;28;20190;-81
2022/06/08 04:00:05;;;;;;;0.10;0.10;;;15.50;99.90;;;;;;5034130;28;20220;-81
2022/06/08 04:02:32;;;;;;;0.10;0.10;;;16.40;99.90;;;;;;5033528;28;20239;-81
2022/06/08 04:04:57;;;;;;;1.23;0.60;;;17.30;99.90;;;;;;5033660;28;20226;-80
2022/06/08 04:07:23;;;;;;;0.23;0.23;;;18.20;99.90;;;;;;5032053;28;20282;-80
2022/06/08 04:09:49;;;;;;;0.17;0.17;;;18.80;99.90;;;;;;5033654;28;20189;-81
2022/06/08 04:12:16;;;;;;;0.30;0.30;;;18.90;99.90;;;;;;5032727;28;20217;-80
2022/06/08 04:14:42;;;;;;;3.93;0.30;;;19.00;99.90;;;;;;5031356;28;20183;-81
2022/06/08 04:17:08;;;;;;;0.20;0.20;;;18.90;99.90;;;;;;5030071;28;20201;-81
2022/06/08 04:19:33;;;;;;;0.30;0.30;;;17.90;99.90;;;;;;5032175;28;20181;-82
2022/06/08 04:21:59;;;;;;;0.20;0.20;;;16.70;99.90;;;;;;5035866;28;20678;-81
2022/06/08 04:24:25;;;;;;;0.10;0.10;;;16.20;99.90;;;;;;5030614;28;20250;-82
2022/06/08 04:26:51;;;;;;;0.10;0.10;;;15.90;99.90;;;;;;5033043;28;20297;-82
2022/06/08 04:29:18;;;;;;;0.20;0.20;;;15.70;99.90;;;;;;5033439;28;20189;-81
2022/06/08 04:31:44;;;;;;;0.10;0.10;;;15.50;99.90;;;;;;5031800;28;20237;-79
2022/06/08 04:34:10;;;;;;;0.10;0.10;;;15.60;99.90;;;;;;5031862;28;20742;-80
2022/06/08 04:36:38;;;;;;;0.40;0.40;;;15.50;99.90;;;;;;5029849;28;20233;-80
2022/06/08 04:39:07;;;;;;;0.40;0.20;;;15.50;99.90;;;;;;5034221;28;20217;-81
2022/06/08 04:41:34;;;;;;;9.10;0.30;;;15.50;99.90;;;;;;5036313;28;20197;-81
2022/06/08 04:44:00;;;;;;;0.10;0.10;;;15.50;99.90;;;;;;5035070;28;20193;-80
2022/06/08 04:46:25;;;;;;;0.47;0.30;;;15.50;99.90;;;;;;5034727;28;20205;-80
2022/06/08 04:48:51;;;;;;;0.30;0.30;;;15.60;99.90;;;;;;5029883;28;20217;-80
2022/06/08 04:51:17;;;;;;;0.20;0.20;;;15.70;99.90;;;;;;5049857;28;20292;-80
2022/06/08 04:53:44;;;;;;;0.10;0.10;;;15.70;99.90;;;;;;5032638;28;20182;-80
2022/06/08 04:56:10;;;;;;;0.20;0.20;;;15.70;99.90;;;;;;5031064;28;20198;-80
2022/06/08 04:58:36;;;;;;;0.20;0.20;;;15.70;99.90;;;;;;5029810;28;20184;-80
2022/06/08 05:01:03;;;;;;;0.30;0.30;;;15.60;99.90;;;;;;5026715;28;21226;-80
2022/06/08 05:03:30;;;;;;;0.20;0.20;;;15.70;99.90;;;;;;5029883;28;20753;-79
2022/06/08 05:05:57;;;;;;;0.20;0.20;;;15.60;99.90;;;;;;5032022;28;20362;-80
2022/06/08 05:08:23;;;;;;;0.40;0.40;;;15.60;99.90;;;;;;5035426;28;20182;-80
2022/06/08 05:10:50;;;;;;;0.20;0.20;;;15.70;99.90;;;;;;5034280;28;20219;-80
2022/06/08 05:13:17;;;;;;;0.10;0.10;;;15.80;99.90;;;;;;5033837;28;20185;-80
2022/06/08 05:15:43;;;;;;;0.40;0.40;;;15.80;99.90;;;;;;5036362;28;20223;-80
2022/06/08 05:18:11;;;;;;;0.27;0.20;;;15.70;99.90;;;;;;5033416;28;20690;-80
2022/06/08 05:20:38;;;;;;;0.30;0.30;;;15.80;99.90;;;;;;5033459;28;20689;-80
2022/06/08 05:23:07;;;;;;;0.10;0.10;;;15.70;99.90;;;;;;5034447;28;20185;-80
2022/06/08 05:25:37;;;;;;;0.20;0.20;;;15.90;99.90;;;;;;5033086;28;20961;-80
2022/06/08 05:28:06;;;;;;;0.20;0.20;;;16.30;99.90;;;;;;5034590;28;20238;-80
2022/06/08 05:30:32;;;;;;;0.13;0.13;;;16.80;99.90;;;;;;5034671;28;20223;-79
2022/06/08 05:32:58;;;;;;;0.30;0.30;;;16.90;99.90;;;;;;5035663;28;20467;-80
2022/06/08 05:35:24;;;;;;;0.20;0.20;;;17.30;99.90;;;;;;5049035;28;20202;-80
2022/06/08 05:37:50;;;;;;;0.63;0.63;;;17.50;99.90;;;;;;5032877;28;20679;-80
2022/06/08 05:40:16;;;;;;;0.47;0.20;;;17.90;99.90;;;;;;5034347;28;20679;-80
2022/06/08 05:42:42;;;;;;;0.20;0.20;;;18.10;99.90;;;;;;5034944;28;20201;-80
2022/06/08 05:45:11;;;;;;;0.13;0.13;;;18.40;99.90;;;;;;5032031;28;20216;-80
2022/06/08 05:47:37;;;;;;;0.40;0.40;;;18.60;99.90;;;;;;5035882;28;20850;-80
2022/06/08 05:50:03;;;;;;;0.30;0.30;;;18.90;99.90;;;;;;5033284;28;20178;-80
2022/06/08 05:52:29;;;;;;;0.20;0.20;;;19.10;99.90;;;;;;5033823;28;20258;-81
2022/06/08 05:54:55;;;;;;;0.57;0.40;;;19.30;99.90;;;;;;5031979;28;20356;-80
2022/06/08 05:57:21;;;;;;;0.80;0.80;;;19.60;99.90;;;;;;5034713;28;20190;-80
2022/06/08 05:59:46;;;;;;;0.63;0.63;;;19.80;99.90;;;;;;5036952;28;20188;-80
2022/06/08 06:02:14;;;;;;;1.60;0.40;;;20.10;99.90;;;;;;5033186;28;20183;-80
2022/06/08 06:04:41;;;;;;;0.40;0.40;;;20.20;99.90;;;;;;5032545;28;20673;-80
2022/06/08 06:07:07;;;;;;;0.40;0.40;;;20.10;99.90;;;;;;5034328;28;20660;-80
2022/06/08 06:09:32;;;;;;;0.47;0.47;;;20.20;99.90;;;;;;5033351;28;20204;-80
2022/06/08 06:11:58;;;;;;;0.20;0.20;;;20.20;99.90;;;;;;5032596;28;20224;-80
2022/06/08 06:14:23;;;;;;;0.20;0.20;;;20.10;99.90;;;;;;5035684;28;20531;-80
2022/06/08 06:16:49;;;;;;;0.53;0.37;;;20.00;99.90;;;;;;5035468;28;20203;-80
2022/06/08 06:19:14;;;;;;;0.43;0.43;;;19.90;99.90;;;;;;5033334;28;20177;-80
2022/06/08 06:21:40;;;;;;;0.80;0.30;;;19.90;99.90;;;;;;5031874;28;20178;-79
2022/06/08 06:24:06;;;;;;;0.23;0.23;;;20.40;99.90;;;;;;5033109;28;20196;-79
2022/06/08 06:26:32;;;;;;;0.20;0.20;;;20.60;99.90;;;;;;5030905;28;20209;-80
2022/06/08 06:28:57;;;;;;;0.20;0.20;;;20.90;99.90;;;;;;5033135;28;20706;-80
2022/06/08 06:31:28;;;;;;;0.30;0.23;;;21.00;99.90;;;;;;5031458;28;20209;-79
2022/06/08 06:33:53;;;;;;;0.20;0.20;;;21.20;99.90;;;;;;5031600;28;20186;-80
2022/06/08 06:36:19;;;;;;;0.10;0.10;;;21.20;99.90;;;;;;5035368;28;20194;-80
2022/06/08 06:38:44;;;;;;;0.10;0.10;;;21.30;99.90;;;;;;5031599;28;20213;-80
2022/06/08 06:41:15;;;;;;;1.80;0.20;;;21.40;99.90;;;;;;5033458;28;20265;-80
2022/06/08 06:43:40;;;;;;;0.40;0.30;;;21.50;99.90;;;;;;5033423;28;20202;-79
2022/06/08 06:46:06;;;;;;;0.40;0.40;;;21.20;99.90;;;;;;5032979;28;20241;-80
2022/06/08 06:48:32;;;;;;;0.27;0.27;;;21.10;99.90;;;;;;5034221;28;20186;-80
2022/06/08 06:50:57;;;;;;;0.93;0.30;;;21.20;99.90;;;;;;5034452;28;20202;-79
2022/06/08 06:53:23;;;;;;;0.20;0.20;;;21.20;99.90;;;;;;5033251;28;20178;-79
2022/06/08 06:55:48;;;;;;;0.53;0.47;;;20.90;99.90;;;;;;5031595;28;20771;-79
2022/06/08 06:58:14;;;;;;;0.40;0.40;;;20.70;99.90;;;;;;5032983;28;20187;-80
2022/06/08 07:00:39;;;;;;;3.63;0.60;;;20.70;99.90;;;;;;5031464;28;20265;-79
2022/06/08 07:03:05;;;;;;;0.47;0.47;;;20.50;99.90;;;;;;5031452;28;20177;-79
2022/06/08 07:05:34;;;;;;;0.40;0.40;;;20.70;99.90;;;;;;5037006;28;20224;-81
2022/06/08 07:07:59;;;;;;;0.20;0.20;;;21.10;99.90;;;;;;5037254;28;20186;-79
2022/06/08 07:10:26;;;;;;;0.20;0.20;;;21.40;99.90;;;;;;5036159;28;20193;-79
2022/06/08 07:12:52;;;;;;;0.63;0.63;;;21.50;99.90;;;;;;5036553;28;20832;-79
2022/06/08 07:15:20;;;;;;;0.40;0.37;;;21.50;99.90;;;;;;5037510;28;20178;-79
2022/06/08 07:17:46;;;;;;;0.23;0.23;;;21.60;99.90;;;;;;5037067;28;20186;-79
2022/06/08 07:20:13;;;;;;;0.57;0.50;;;21.80;99.90;;;;;;5036094;28;20186;-79
2022/06/08 07:22:38;;;;;;;0.20;0.20;;;22.00;99.90;;;;;;5035817;28;20304;-79
2022/06/08 07:25:07;;;;;;;0.30;0.30;;;22.20;99.90;;;;;;5037923;28;20935;-79
2022/06/08 07:27:34;;;;;;;0.30;0.30;;;22.30;99.90;;;;;;5036064;28;20185;-79
2022/06/08 07:29:59;;;;;;;0.70;0.70;;;22.40;99.90;;;;;;5035805;28;21001;-79
2022/06/08 07:32:25;;;;;;;1.10;0.50;;;22.00;99.90;;;;;;5039093;28;20202;-79
2022/06/08 07:34:51;;;;;;;0.10;0.10;;;21.80;99.90;;;;;;5035015;28;20178;-80
2022/06/08 07:37:16;;;;;;;0.30;0.30;;;21.90;99.90;;;;;;5035518;28;20230;-79
2022/06/08 07:39:42;;;;;;;0.10;0.10;;;22.20;99.90;;;;;;5035752;28;20179;-79
2022/06/08 07:42:08;;;;;;;0.20;0.20;;;22.30;99.90;;;;;;5038686;28;20315;-79
2022/06/08 07:44:33;;;;;;;0.23;0.23;;;22.10;99.90;;;;;;5034730;28;20554;-79
2022/06/08 07:46:59;;;;;;;0.20;0.20;;;22.10;99.90;;;;;;5034213;28;20206;-79
2022/06/08 07:49:37;;;;;;;2.73;0.40;;;22.20;99.90;;;;;;5036015;28;20178;-79
2022/06/08 07:52:08;;;;;;;1.03;0.97;;;22.10;99.90;;;;;;5035488;28;20216;-79
2022/06/08 07:54:34;;;;;;;0.23;0.23;;;22.00;99.90;;;;;;5036535;28;20182;-79
2022/06/08 07:57:01;;;;;;;0.43;0.43;;;21.80;99.90;;;;;;5035869;28;20197;-80
2022/06/08 07:59:29;;;;;;;0.10;0.10;;;22.00;99.90;;;;;;5035746;28;20189;-79
2022/06/08 08:01:55;;;;;;;0.30;0.30;;;22.20;99.90;;;;;;5034567;28;20337;-79
2022/06/08 08:04:21;;;;;;;0.40;0.40;;;22.00;99.90;;;;;;5034588;28;20724;-79
2022/06/08 08:06:47;;;;;;;1.23;0.73;;;22.10;99.90;;;;;;5034533;28;20221;-79
2022/06/08 08:09:17;;;;;;;0.47;0.40;;;22.30;99.90;;;;;;5036005;28;20218;-79
2022/06/08 08:11:45;;;;;;;2.73;0.73;;;22.40;99.90;;;;;;5035922;28;20333;-79
2022/06/08 08:14:12;;;;;;;0.57;0.47;;;22.40;99.90;;;;;;5032502;28;20170;-79
2022/06/08 08:16:38;;;;;;;2.40;0.20;;;22.40;99.90;;;;;;5033129;28;20561;-79
2022/06/08 08:19:04;;;;;;;0.37;0.30;;;22.60;99.90;;;;;;5034311;28;20188;-79
2022/06/08 08:21:29;;;;;;;0.20;0.20;;;22.80;99.90;;;;;;5033457;28;20316;-79
2022/06/08 08:23:55;;;;;;;0.40;0.40;;;23.00;99.90;;;;;;5034716;28;20825;-79
2022/06/08 08:26:20;;;;;;;0.30;0.30;;;23.10;99.90;;;;;;5035711;28;20574;-79
2022/06/08 08:28:46;;;;;;;0.40;0.40;;;23.10;99.90;;;;;;5036512;28;20186;-80
2022/06/08 08:31:11;;;;;;;0.23;0.23;;;23.10;99.90;;;;;;5035786;28;20277;-79
2022/06/08 08:33:37;;;;;;;0.20;0.20;;;23.30;99.90;;;;;;5033110;28;20719;-79
2022/06/08 08:36:03;;;;;;;0.10;0.10;;;23.30;99.90;;;;;;5033446;28;20195;-79
2022/06/08 08:38:29;;;;;;;0.20;0.20;;;23.50;99.90;;;;;;5035806;28;20175;-79
2022/06/08 08:40:57;;;;;;;0.27;0.27;;;24.00;99.90;;;;;;5034139;28;20950;-80
2022/06/08 08:43:34;;;;;;;0.27;0.27;;;24.50;99.90;;;;;;5032926;28;20185;-79
2022/06/08 08:46:18;;;;;;;0.27;0.27;;;24.80;99.90;;;;;;5033731;28;20205;-79
2022/06/08 08:49:03;;;;;;;0.40;0.40;;;24.90;99.90;;;;;;5034193;28;20193;-79
2022/06/08 08:51:57;;;;;;;0.27;0.27;;;24.80;99.90;;;;;;5035896;28;20196;-79
2022/06/08 08:54:31;;;;;;;0.37;0.37;;;24.30;99.90;;;;;;5036612;28;20179;-79
2022/06/08 08:57:27;;;;;;;0.30;0.30;;;24.30;99.90;;;;;;5033657;28;20757;-79
2022/06/08 08:59:53;;;;;;;0.20;0.20;;;24.50;99.90;;;;;;5032999;28;20185;-79
2022/06/08 09:05:16;;;;;;;0.30;0.30;;;23.10;99.90;;;;;;5034902;28;20208;-79
2022/06/08 09:07:42;;;;;;;0.27;0.27;;;22.90;99.90;;;;;;5033474;28;20703;-79
2022/06/08 09:10:21;;;;;;;0.50;0.50;;;23.40;99.90;;;;;;5035249;28;20761;-79
2022/06/08 09:12:48;;;;;;;5.20;0.83;;;24.10;99.90;;;;;;5033780;28;20202;-79
2022/06/08 09:15:17;;;;;;;0.63;0.30;;;23.90;99.90;;;;;;5036002;28;20574;-79
2022/06/08 09:17:56;;;;;;;0.10;0.10;;;23.80;99.90;;;;;;5032445;28;20240;-79
2022/06/08 09:20:26;;;;;;;1.90;0.40;;;23.90;99.90;;;;;;5034017;28;20185;-79
2022/06/08 09:22:54;;;;;;;0.20;0.20;;;24.00;99.90;;;;;;5033647;28;20636;-80
2022/06/08 09:25:33;;;;;;;0.27;0.27;;;24.20;99.90;;;;;;5035027;28;20549;-79
2022/06/08 09:27:59;;;;;;;0.47;0.47;;;24.20;99.90;;;;;;5034176;28;20197;-79
2022/06/08 09:30:28;;;;;;;0.50;0.50;;;24.10;99.90;;;;;;5033689;28;20188;-79
2022/06/08 09:33:01;;;;;;;0.20;0.20;;;23.90;99.90;;;;;;5031612;28;20194;-79
2022/06/08 09:35:36;;;;;;;0.30;0.30;;;23.80;99.90;;;;;;5033865;28;20317;-80
2022/06/08 09:38:14;;;;;;;0.20;0.20;;;23.60;99.90;;;;;;5032751;28;20576;-79
2022/06/08 09:41:03;;;;;;;2.00;0.40;;;23.30;99.90;;;;;;5032641;28;20190;-79
2022/06/08 09:43:52;;;;;;;0.30;0.30;;;23.10;99.90;;;;;;5033842;28;20212;-79
2022/06/08 09:51:25;;;;;;;0.97;0.97;;;23.00;99.90;;;;;;5033056;28;20486;-79
2022/06/08 09:52:51;;;;;;;0.20;0.20;;;22.70;99.90;;;;;;5032075;28;20259;-79
2022/06/08 09:55:31;;;;;;;0.30;0.30;;;22.70;99.90;;;;;;5033534;28;20221;-79
2022/06/08 09:58:37;;;;;;;0.40;0.40;;;22.50;99.90;;;;;;5035828;28;20296;-79
2022/06/08 10:01:22;;;;;;;0.77;0.30;;;22.40;99.90;;;;;;5023709;28;20893;-79
2022/06/08 10:04:00;;;;;;;0.30;0.30;;;22.20;99.90;;;;;;5034008;28;20184;-79
2022/06/08 10:06:52;;;;;;;0.30;0.30;;;21.70;99.90;;;;;;5033992;28;20221;-79
2022/06/08 10:09:20;;;;;;;1.03;0.37;;;21.50;99.90;;;;;;5034889;28;20179;-79
2022/06/08 10:12:12;;;;;;;0.70;0.70;;;21.60;99.90;;;;;;5034706;28;20212;-79
2022/06/08 10:15:13;;;;;;;0.40;0.40;;;21.80;99.90;;;;;;5034922;28;20190;-79
2022/06/08 10:18:01;;;;;;;0.50;0.50;;;22.90;99.90;;;;;;5032093;28;20171;-79
2022/06/08 10:20:36;;;;;;;0.60;0.60;;;22.90;99.90;;;;;;5033282;28;20209;-79
2022/06/08 10:23:20;;;;;;;0.50;0.50;;;22.80;99.90;;;;;;5032362;28;20425;-79
2022/06/08 10:25:50;;;;;;;3.60;2.73;;;22.60;99.90;;;;;;5031216;28;20202;-79
2022/06/08 10:28:41;;;;;;;0.30;0.30;;;22.60;99.90;;;;;;5032152;28;20182;-79
2022/06/08 10:31:15;;;;;;;0.23;0.23;;;22.50;99.90;;;;;;5033801;28;20224;-79
2022/06/08 10:33:59;;;;;;;0.30;0.30;;;22.60;99.90;;;;;;5032406;28;20182;-79
2022/06/08 10:36:25;;;;;;;1.50;0.30;;;22.80;99.90;;;;;;5033324;28;20201;-79
2022/06/08 10:38:51;;;;;;;0.20;0.20;;;22.40;99.90;;;;;;5033799;28;20617;-79
2022/06/08 10:44:33;;;;;;;0.30;0.30;;;22.30;99.90;;;;;;5037219;28;20669;-79
2022/06/08 10:47:18;;;;;;;0.87;0.87;;;21.40;99.90;;;;;;5034768;28;20256;-79
2022/06/08 10:50:01;;;;;;;0.20;0.20;;;21.00;99.90;;;;;;5036132;28;21304;-79
2022/06/08 10:52:41;;;;;;;0.20;0.20;;;21.00;99.90;;;;;;5034533;28;20677;-79
2022/06/08 10:55:17;;;;;;;0.20;0.20;;;21.30;99.90;;;;;;5036385;28;20220;-79
2022/06/08 10:57:42;;;;;;;0.37;0.37;;;21.20;99.90;;;;;;5035480;28;20607;-79
2022/06/08 11:00:20;;;;;;;0.40;0.40;;;21.30;99.90;;;;;;5036218;28;20182;-79
2022/06/08 11:03:13;;;;;;;0.20;0.20;;;21.40;99.90;;;;;;5036473;28;20739;-79
2022/06/08 11:05:41;;;;;;;0.40;0.30;;;21.40;99.90;;;;;;5027410;28;20226;-79
2022/06/08 11:08:06;;;;;;;0.10;0.10;;;21.50;99.90;;;;;;5037121;28;20186;-79
2022/06/08 11:10:44;;;;;;;0.23;0.23;;;21.60;99.90;;;;;;5034072;28;20181;-79
2022/06/08 11:13:22;;;;;;;1.83;1.73;;;21.70;99.90;;;;;;5038240;28;20316;-79
2022/06/08 11:16:13;;;;;;;0.20;0.20;;;21.80;99.90;;;;;;5036571;28;20588;-79
2022/06/08 11:18:50;;;;;;;0.10;0.10;;;22.00;99.90;;;;;;5034752;28;20175;-79
2022/06/08 11:21:28;;;;;;;0.20;0.20;;;22.20;99.90;;;;;;5035665;28;20561;-79
2022/06/08 11:24:33;;;;;;;0.23;0.23;;;22.30;99.90;;;;;;5034556;28;20188;-79
2022/06/08 11:27:10;;;;;;;0.53;0.20;;;22.50;99.90;;;;;;5037599;28;20218;-79
2022/06/08 11:29:48;;;;;;;0.27;0.27;;;22.70;99.90;;;;;;5035511;28;20658;-79
2022/06/08 11:32:34;;;;;;;0.77;0.77;;;22.60;99.90;;;;;;5037387;28;20597;-79
2022/06/08 11:35:33;;;;;;;0.20;0.20;;;22.40;99.90;;;;;;5035403;28;20238;-79
2022/06/08 11:37:58;;;;;;;3.63;0.37;;;22.30;99.90;;;;;;5035680;28;20491;-79
2022/06/08 11:40:31;;;;;;;0.40;0.33;;;22.20;99.90;;;;;;5035140;28;20182;-79
2022/06/08 11:43:36;;;;;;;0.33;0.33;;;22.00;99.90;;;;;;5033208;28;20191;-79
2022/06/08 11:46:04;;;;;;;0.30;0.30;;;22.00;99.90;;;;;;5034961;28;20206;-79
2022/06/08 11:48:43;;;;;;;0.33;0.33;;;22.00;99.90;;;;;;5036958;28;20182;-79
2022/06/08 11:51:08;;;;;;;0.40;0.40;;;22.00;99.90;;;;;;5037299;28;20980;-79
2022/06/08 11:53:39;;;;;;;1.20;0.70;;;21.90;99.90;;;;;;5037392;28;20173;-79
2022/06/08 11:56:08;;;;;;;0.20;0.20;;;22.00;99.90;;;;;;5036504;28;20205;-79
2022/06/08 11:58:35;;;;;;;0.37;0.37;;;22.20;99.90;;;;;;5035589;28;20688;-79
2022/06/08 12:01:11;;;;;;;0.87;0.30;;;22.20;99.90;;;;;;5034471;28;20182;-79
2022/06/08 12:03:42;;;;;;;2.10;0.87;;;22.30;99.90;;;;;;5036787;28;20189;-79
2022/06/08 12:06:17;;;;;;;0.10;0.10;;;22.30;99.90;;;;;;5037637;28;20217;-79
2022/06/08 12:08:54;;;;;;;0.47;0.20;;;22.30;99.90;;;;;;5036770;28;20613;-79
2022/06/08 12:11:24;;;;;;;0.20;0.20;;;22.30;99.90;;;;;;5037727;28;20729;-79
2022/06/08 12:13:54;;;;;;;0.20;0.20;;;22.30;99.90;;;;;;5036711;28;20262;-79
2022/06/08 12:16:34;;;;;;;0.50;0.50;;;22.20;99.90;;;;;;5036676;28;20300;-79
2022/06/08 12:19:14;;;;;;;1.23;0.57;;;22.20;99.90;;;;;;5033547;28;20236;-79
2022/06/08 12:21:42;;;;;;;0.17;0.17;;;22.20;99.90;;;;;;5035437;28;20269;-79
2022/06/08 12:24:11;;;;;;;0.27;0.20;;;22.20;99.90;;;;;;5035243;28;20544;-79
2022/06/08 12:26:54;;;;;;;0.27;0.23;;;22.20;99.90;;;;;;5036149;28;20914;-79
2022/06/08 12:29:22;;;;;;;0.77;0.30;;;22.30;99.90;;;;;;5037309;28;20185;-79
2022/06/08 12:32:18;;;;;;;0.10;0.10;;;22.30;99.90;;;;;;5036868;28;20214;-79
2022/06/08 12:34:52;;;;;;;0.10;0.10;;;22.30;99.90;;;;;;5033436;28;20205;-79
2022/06/08 12:37:45;;;;;;;0.37;0.27;;;22.40;99.90;;;;;;5034595;28;20393;-79
2022/06/08 12:40:17;;;;;;;0.10;0.10;;;22.40;99.90;;;;;;5032682;28;20588;-79
2022/06/08 12:43:10;;;;;;;0.10;0.10;;;22.50;99.90;;;;;;5040197;28;20208;-79
2022/06/08 12:45:39;;;;;;;0.20;0.20;;;22.50;99.90;;;;;;5035968;28;20779;-79
2022/06/08 12:48:27;;;;;;;0.10;0.10;;;22.50;99.90;;;;;;5038199;28;20201;-79
2022/06/08 12:50:55;;;;;;;0.33;0.20;;;22.50;99.90;;;;;;5037972;28;20630;-79
2022/06/08 12:53:22;;;;;;;0.20;0.20;;;22.40;99.90;;;;;;5034642;28;20214;-79
2022/06/08 12:55:49;;;;;;;0.33;0.33;;;22.40;99.90;;;;;;5036003;28;20206;-79
2022/06/08 12:58:15;;;;;;;0.20;0.20;;;22.60;99.90;;;;;;5035461;28;20449;-79
2022/06/08 13:00:50;;;;;;;1.13;0.23;;;22.60;99.90;;;;;;5035917;28;20602;-79
2022/06/08 13:03:27;;;;;;;0.10;0.10;;;22.40;99.90;;;;;;5031263;28;20671;-79
2022/06/08 13:05:55;;;;;;;0.20;0.20;;;22.40;99.90;;;;;;5035052;28;20221;-79
2022/06/08 13:08:25;;;;;;;0.20;0.20;;;22.30;99.90;;;;;;5035315;28;20209;-79
2022/06/08 13:10:52;;;;;;;0.20;0.20;;;22.20;99.90;;;;;;5037079;28;20240;-79
2022/06/08 13:13:25;;;;;;;0.17;0.17;;;22.20;99.90;;;;;;5035611;28;20194;-79
2022/06/08 13:15:51;;;;;;;1.17;0.30;;;22.20;99.90;;;;;;5033350;28;20287;-80
2022/06/08 13:18:21;;;;;;;0.73;0.73;;;22.10;99.90;;;;;;5036136;28;20595;-79
2022/06/08 13:20:48;;;;;;;0.50;0.50;;;21.90;99.90;;;;;;5033703;28;20197;-79
2022/06/08 13:23:15;;;;;;;0.23;0.23;;;21.70;99.90;;;;;;5032728;28;20196;-79
2022/06/08 13:25:43;;;;;;;0.20;0.20;;;21.60;99.90;;;;;;5034657;28;20623;-79